sensor_id;sensor_type;location;lat;lon;timestamp;P1;durP1;ratioP1;P2;durP2;ratioP2
7110;SDS011;3597;42.650;23.386;2023-07-29T00:00:35;1.80;;;1.80;;
7110;SDS011;3597;42.650;23.386;2023-07-29T00:03:01;1.60;;;1.60;;
7110;SDS011;3597;42.650;23.386;2023-07-29T00:05:26;1.70;;;1.70;;
7110;SDS011;3597;42.650;23.386;2023-07-29T00:07:51;1.60;;;1.60;;
7110;SDS011;3597;42.650;23.386;2023-07-29T00:10:17;1.67;;;1.67;;
7110;SDS011;3597;42.650;23.386;2023-07-29T00:12:42;1.63;;;1.63;;
7110;SDS011;3597;42.650;23.386;2023-07-29T00:15:08;1.80;;;1.80;;
7110;SDS011;3597;42.650;23.386;2023-07-29T00:17:33;2.10;;;1.70;;
7110;SDS011;3597;42.650;23.386;2023-07-29T00:19:59;1.70;;;1.70;;
7110;SDS011;3597;42.650;23.386;2023-07-29T00:22:24;2.20;;;2.20;;
7110;SDS011;3597;42.650;23.386;2023-07-29T00:24:52;1.90;;;1.90;;
7110;SDS011;3597;42.650;23.386;2023-07-29T00:27:22;1.80;;;1.80;;
7110;SDS011;3597;42.650;23.386;2023-07-29T00:29:48;2.00;;;2.00;;
7110;SDS011;3597;42.650;23.386;2023-07-29T00:32:13;2.00;;;2.00;;
7110;SDS011;3597;42.650;23.386;2023-07-29T00:34:38;1.80;;;1.80;;
7110;SDS011;3597;42.650;23.386;2023-07-29T00:37:04;1.80;;;1.80;;
7110;SDS011;3597;42.650;23.386;2023-07-29T00:39:30;1.67;;;1.67;;
7110;SDS011;3597;42.650;23.386;2023-07-29T00:41:56;2.37;;;2.37;;
7110;SDS011;3597;42.650;23.386;2023-07-29T00:44:22;2.20;;;2.20;;
7110;SDS011;3597;42.650;23.386;2023-07-29T00:46:47;1.90;;;1.90;;
7110;SDS011;3597;42.650;23.386;2023-07-29T00:49:15;1.70;;;1.70;;
7110;SDS011;3597;42.650;23.386;2023-07-29T00:51:40;1.67;;;1.67;;
7110;SDS011;3597;42.650;23.386;2023-07-29T00:54:05;1.63;;;1.63;;
7110;SDS011;3597;42.650;23.386;2023-07-29T00:56:31;1.80;;;1.80;;
7110;SDS011;3597;42.650;23.386;2023-07-29T00:58:56;1.87;;;1.87;;
7110;SDS011;3597;42.650;23.386;2023-07-29T01:01:26;1.80;;;1.80;;
7110;SDS011;3597;42.650;23.386;2023-07-29T01:03:52;2.37;;;2.37;;
7110;SDS011;3597;42.650;23.386;2023-07-29T01:08:56;2.20;;;2.20;;
7110;SDS011;3597;42.650;23.386;2023-07-29T01:11:33;2.40;;;2.40;;
7110;SDS011;3597;42.650;23.386;2023-07-29T01:14:29;2.33;;;2.33;;
7110;SDS011;3597;42.650;23.386;2023-07-29T01:16:52;2.10;;;2.10;;
7110;SDS011;3597;42.650;23.386;2023-07-29T01:22:18;2.43;;;2.43;;
7110;SDS011;3597;42.650;23.386;2023-07-29T01:24:44;2.27;;;2.27;;
7110;SDS011;3597;42.650;23.386;2023-07-29T01:27:09;2.00;;;2.00;;
7110;SDS011;3597;42.650;23.386;2023-07-29T01:29:35;2.00;;;2.00;;
7110;SDS011;3597;42.650;23.386;2023-07-29T01:32:01;1.80;;;1.80;;
7110;SDS011;3597;42.650;23.386;2023-07-29T01:34:29;1.80;;;1.70;;
7110;SDS011;3597;42.650;23.386;2023-07-29T01:36:59;1.90;;;1.80;;
7110;SDS011;3597;42.650;23.386;2023-07-29T01:39:28;1.90;;;1.90;;
7110;SDS011;3597;42.650;23.386;2023-07-29T01:41:54;1.80;;;1.80;;
7110;SDS011;3597;42.650;23.386;2023-07-29T01:44:20;1.60;;;1.60;;
7110;SDS011;3597;42.650;23.386;2023-07-29T01:46:45;1.60;;;1.60;;
7110;SDS011;3597;42.650;23.386;2023-07-29T01:49:11;1.50;;;1.50;;
7110;SDS011;3597;42.650;23.386;2023-07-29T01:51:37;1.53;;;1.53;;
7110;SDS011;3597;42.650;23.386;2023-07-29T01:54:02;1.70;;;1.70;;
7110;SDS011;3597;42.650;23.386;2023-07-29T01:56:28;2.00;;;2.00;;
7110;SDS011;3597;42.650;23.386;2023-07-29T01:58:53;2.10;;;2.10;;
7110;SDS011;3597;42.650;23.386;2023-07-29T02:01:18;2.30;;;2.30;;
7110;SDS011;3597;42.650;23.386;2023-07-29T02:03:44;2.40;;;2.40;;
7110;SDS011;3597;42.650;23.386;2023-07-29T02:06:09;2.70;;;2.70;;
7110;SDS011;3597;42.650;23.386;2023-07-29T02:08:35;2.40;;;2.40;;
7110;SDS011;3597;42.650;23.386;2023-07-29T02:11:00;2.60;;;2.60;;
7110;SDS011;3597;42.650;23.386;2023-07-29T02:13:25;2.50;;;2.50;;
7110;SDS011;3597;42.650;23.386;2023-07-29T02:15:51;2.40;;;2.40;;
7110;SDS011;3597;42.650;23.386;2023-07-29T02:18:16;2.10;;;2.10;;
7110;SDS011;3597;42.650;23.386;2023-07-29T02:20:42;1.97;;;1.97;;
7110;SDS011;3597;42.650;23.386;2023-07-29T02:23:14;2.00;;;2.00;;
7110;SDS011;3597;42.650;23.386;2023-07-29T02:25:39;1.80;;;1.80;;
7110;SDS011;3597;42.650;23.386;2023-07-29T02:28:04;1.70;;;1.70;;
7110;SDS011;3597;42.650;23.386;2023-07-29T02:30:30;1.70;;;1.70;;
7110;SDS011;3597;42.650;23.386;2023-07-29T02:32:55;1.80;;;1.80;;
7110;SDS011;3597;42.650;23.386;2023-07-29T02:35:20;2.20;;;1.50;;
7110;SDS011;3597;42.650;23.386;2023-07-29T02:37:46;1.60;;;1.60;;
7110;SDS011;3597;42.650;23.386;2023-07-29T02:40:11;2.10;;;2.00;;
7110;SDS011;3597;42.650;23.386;2023-07-29T02:42:36;1.70;;;1.70;;
7110;SDS011;3597;42.650;23.386;2023-07-29T02:45:02;1.97;;;1.87;;
7110;SDS011;3597;42.650;23.386;2023-07-29T02:47:27;1.60;;;1.60;;
7110;SDS011;3597;42.650;23.386;2023-07-29T02:49:53;1.60;;;1.60;;
7110;SDS011;3597;42.650;23.386;2023-07-29T02:52:18;1.80;;;1.80;;
7110;SDS011;3597;42.650;23.386;2023-07-29T02:54:43;1.60;;;1.60;;
7110;SDS011;3597;42.650;23.386;2023-07-29T02:57:09;1.37;;;1.37;;
7110;SDS011;3597;42.650;23.386;2023-07-29T02:59:34;1.60;;;1.60;;
7110;SDS011;3597;42.650;23.386;2023-07-29T03:01:59;1.50;;;1.50;;
7110;SDS011;3597;42.650;23.386;2023-07-29T03:04:25;1.60;;;1.60;;
7110;SDS011;3597;42.650;23.386;2023-07-29T03:06:50;1.50;;;1.50;;
7110;SDS011;3597;42.650;23.386;2023-07-29T03:09:15;1.30;;;1.30;;
7110;SDS011;3597;42.650;23.386;2023-07-29T03:11:41;1.60;;;1.60;;
7110;SDS011;3597;42.650;23.386;2023-07-29T03:14:06;1.70;;;1.70;;
7110;SDS011;3597;42.650;23.386;2023-07-29T03:16:31;1.60;;;1.60;;
7110;SDS011;3597;42.650;23.386;2023-07-29T03:18:57;1.50;;;1.50;;
7110;SDS011;3597;42.650;23.386;2023-07-29T03:21:24;1.70;;;1.70;;
7110;SDS011;3597;42.650;23.386;2023-07-29T03:23:49;1.67;;;1.67;;
7110;SDS011;3597;42.650;23.386;2023-07-29T03:26:14;1.70;;;1.70;;
7110;SDS011;3597;42.650;23.386;2023-07-29T03:28:41;1.70;;;1.70;;
7110;SDS011;3597;42.650;23.386;2023-07-29T03:31:07;1.60;;;1.60;;
7110;SDS011;3597;42.650;23.386;2023-07-29T03:33:32;1.67;;;1.67;;
7110;SDS011;3597;42.650;23.386;2023-07-29T03:35:58;1.87;;;1.87;;
7110;SDS011;3597;42.650;23.386;2023-07-29T03:38:23;1.50;;;1.50;;
7110;SDS011;3597;42.650;23.386;2023-07-29T03:40:50;1.83;;;1.83;;
7110;SDS011;3597;42.650;23.386;2023-07-29T03:43:15;1.70;;;1.70;;
7110;SDS011;3597;42.650;23.386;2023-07-29T03:45:41;1.70;;;1.70;;
7110;SDS011;3597;42.650;23.386;2023-07-29T03:48:06;1.50;;;1.50;;
7110;SDS011;3597;42.650;23.386;2023-07-29T03:50:33;1.70;;;1.70;;
7110;SDS011;3597;42.650;23.386;2023-07-29T03:52:59;1.60;;;1.60;;
7110;SDS011;3597;42.650;23.386;2023-07-29T03:55:24;1.77;;;1.77;;
7110;SDS011;3597;42.650;23.386;2023-07-29T03:57:50;1.57;;;1.57;;
7110;SDS011;3597;42.650;23.386;2023-07-29T04:00:15;1.70;;;1.70;;
7110;SDS011;3597;42.650;23.386;2023-07-29T04:02:41;1.60;;;1.60;;
7110;SDS011;3597;42.650;23.386;2023-07-29T04:05:07;1.50;;;1.50;;
7110;SDS011;3597;42.650;23.386;2023-07-29T04:07:35;1.63;;;1.63;;
7110;SDS011;3597;42.650;23.386;2023-07-29T04:10:01;1.63;;;1.60;;
7110;SDS011;3597;42.650;23.386;2023-07-29T04:12:27;1.80;;;1.80;;
7110;SDS011;3597;42.650;23.386;2023-07-29T04:14:52;3.00;;;2.77;;
7110;SDS011;3597;42.650;23.386;2023-07-29T04:17:18;1.80;;;1.80;;
7110;SDS011;3597;42.650;23.386;2023-07-29T04:19:43;1.90;;;1.90;;
7110;SDS011;3597;42.650;23.386;2023-07-29T04:22:08;1.47;;;1.47;;
7110;SDS011;3597;42.650;23.386;2023-07-29T04:24:34;1.53;;;1.53;;
7110;SDS011;3597;42.650;23.386;2023-07-29T04:26:59;1.80;;;1.57;;
7110;SDS011;3597;42.650;23.386;2023-07-29T04:29:24;1.40;;;1.40;;
7110;SDS011;3597;42.650;23.386;2023-07-29T04:31:50;1.60;;;1.50;;
7110;SDS011;3597;42.650;23.386;2023-07-29T04:34:16;1.53;;;1.53;;
7110;SDS011;3597;42.650;23.386;2023-07-29T04:36:42;1.40;;;1.40;;
7110;SDS011;3597;42.650;23.386;2023-07-29T04:39:07;1.40;;;1.40;;
7110;SDS011;3597;42.650;23.386;2023-07-29T04:41:33;1.90;;;1.90;;
7110;SDS011;3597;42.650;23.386;2023-07-29T04:43:58;2.00;;;2.00;;
7110;SDS011;3597;42.650;23.386;2023-07-29T04:46:23;1.80;;;1.80;;
7110;SDS011;3597;42.650;23.386;2023-07-29T04:48:49;1.70;;;1.60;;
7110;SDS011;3597;42.650;23.386;2023-07-29T04:51:14;1.50;;;1.50;;
7110;SDS011;3597;42.650;23.386;2023-07-29T04:53:39;1.30;;;1.30;;
7110;SDS011;3597;42.650;23.386;2023-07-29T04:56:05;1.50;;;1.50;;
7110;SDS011;3597;42.650;23.386;2023-07-29T04:58:30;1.40;;;1.40;;
7110;SDS011;3597;42.650;23.386;2023-07-29T05:00:59;1.60;;;1.60;;
7110;SDS011;3597;42.650;23.386;2023-07-29T05:03:25;1.27;;;1.27;;
7110;SDS011;3597;42.650;23.386;2023-07-29T05:05:51;1.60;;;1.50;;
7110;SDS011;3597;42.650;23.386;2023-07-29T05:08:18;1.27;;;1.27;;
7110;SDS011;3597;42.650;23.386;2023-07-29T05:10:43;1.20;;;1.20;;
7110;SDS011;3597;42.650;23.386;2023-07-29T05:13:09;1.60;;;1.60;;
7110;SDS011;3597;42.650;23.386;2023-07-29T05:15:34;2.07;;;2.07;;
7110;SDS011;3597;42.650;23.386;2023-07-29T05:17:59;2.70;;;2.70;;
7110;SDS011;3597;42.650;23.386;2023-07-29T05:20:25;1.77;;;1.77;;
7110;SDS011;3597;42.650;23.386;2023-07-29T05:22:50;1.13;;;1.13;;
7110;SDS011;3597;42.650;23.386;2023-07-29T05:25:16;1.20;;;1.20;;
7110;SDS011;3597;42.650;23.386;2023-07-29T05:27:41;1.73;;;1.73;;
7110;SDS011;3597;42.650;23.386;2023-07-29T05:30:07;1.40;;;1.40;;
7110;SDS011;3597;42.650;23.386;2023-07-29T05:32:32;1.52;;;1.52;;
7110;SDS011;3597;42.650;23.386;2023-07-29T05:34:58;1.40;;;1.40;;
7110;SDS011;3597;42.650;23.386;2023-07-29T05:37:23;2.20;;;1.73;;
7110;SDS011;3597;42.650;23.386;2023-07-29T05:39:49;1.70;;;1.67;;
7110;SDS011;3597;42.650;23.386;2023-07-29T05:42:14;1.30;;;1.30;;
7110;SDS011;3597;42.650;23.386;2023-07-29T05:44:39;1.45;;;1.45;;
7110;SDS011;3597;42.650;23.386;2023-07-29T05:47:05;1.30;;;1.30;;
7110;SDS011;3597;42.650;23.386;2023-07-29T05:49:30;1.30;;;1.30;;
7110;SDS011;3597;42.650;23.386;2023-07-29T05:51:56;1.27;;;1.27;;
7110;SDS011;3597;42.650;23.386;2023-07-29T05:54:21;1.30;;;1.30;;
7110;SDS011;3597;42.650;23.386;2023-07-29T05:56:46;1.27;;;1.27;;
7110;SDS011;3597;42.650;23.386;2023-07-29T05:59:12;1.40;;;1.40;;
7110;SDS011;3597;42.650;23.386;2023-07-29T06:01:37;1.50;;;1.50;;
7110;SDS011;3597;42.650;23.386;2023-07-29T06:04:03;1.27;;;1.27;;
7110;SDS011;3597;42.650;23.386;2023-07-29T06:06:28;1.30;;;1.30;;
7110;SDS011;3597;42.650;23.386;2023-07-29T06:08:54;1.30;;;1.30;;
7110;SDS011;3597;42.650;23.386;2023-07-29T06:11:19;1.40;;;1.40;;
7110;SDS011;3597;42.650;23.386;2023-07-29T06:13:45;1.38;;;1.38;;
7110;SDS011;3597;42.650;23.386;2023-07-29T06:16:12;1.25;;;1.25;;
7110;SDS011;3597;42.650;23.386;2023-07-29T06:18:37;1.40;;;1.40;;
7110;SDS011;3597;42.650;23.386;2023-07-29T06:21:02;1.40;;;1.40;;
7110;SDS011;3597;42.650;23.386;2023-07-29T06:23:32;1.55;;;1.55;;
7110;SDS011;3597;42.650;23.386;2023-07-29T06:25:57;1.33;;;1.33;;
7110;SDS011;3597;42.650;23.386;2023-07-29T06:28:24;1.25;;;1.25;;
7110;SDS011;3597;42.650;23.386;2023-07-29T06:30:49;2.25;;;1.40;;
7110;SDS011;3597;42.650;23.386;2023-07-29T06:33:14;1.38;;;1.38;;
7110;SDS011;3597;42.650;23.386;2023-07-29T06:35:41;1.55;;;1.30;;
7110;SDS011;3597;42.650;23.386;2023-07-29T06:38:06;1.40;;;1.40;;
7110;SDS011;3597;42.650;23.386;2023-07-29T06:40:32;1.30;;;1.30;;
7110;SDS011;3597;42.650;23.386;2023-07-29T06:42:57;1.35;;;1.35;;
7110;SDS011;3597;42.650;23.386;2023-07-29T06:45:22;1.30;;;1.30;;
7110;SDS011;3597;42.650;23.386;2023-07-29T06:47:48;1.30;;;1.30;;
7110;SDS011;3597;42.650;23.386;2023-07-29T06:50:13;1.67;;;1.63;;
7110;SDS011;3597;42.650;23.386;2023-07-29T06:52:38;1.38;;;1.38;;
7110;SDS011;3597;42.650;23.386;2023-07-29T06:55:05;1.40;;;1.40;;
7110;SDS011;3597;42.650;23.386;2023-07-29T06:57:31;1.20;;;1.20;;
7110;SDS011;3597;42.650;23.386;2023-07-29T06:59:56;1.52;;;1.40;;
7110;SDS011;3597;42.650;23.386;2023-07-29T07:02:21;1.48;;;1.38;;
7110;SDS011;3597;42.650;23.386;2023-07-29T07:04:47;1.50;;;1.50;;
7110;SDS011;3597;42.650;23.386;2023-07-29T07:07:12;1.70;;;1.60;;
7110;SDS011;3597;42.650;23.386;2023-07-29T07:09:37;1.50;;;1.50;;
7110;SDS011;3597;42.650;23.386;2023-07-29T07:12:03;1.30;;;1.30;;
7110;SDS011;3597;42.650;23.386;2023-07-29T07:14:28;1.40;;;1.40;;
7110;SDS011;3597;42.650;23.386;2023-07-29T07:16:54;1.45;;;1.45;;
7110;SDS011;3597;42.650;23.386;2023-07-29T07:19:19;1.27;;;1.27;;
7110;SDS011;3597;42.650;23.386;2023-07-29T07:21:44;1.75;;;1.40;;
7110;SDS011;3597;42.650;23.386;2023-07-29T07:24:10;3.50;;;1.58;;
7110;SDS011;3597;42.650;23.386;2023-07-29T07:26:35;1.38;;;1.38;;
7110;SDS011;3597;42.650;23.386;2023-07-29T07:29:01;1.70;;;1.70;;
7110;SDS011;3597;42.650;23.386;2023-07-29T07:31:26;1.77;;;1.67;;
7110;SDS011;3597;42.650;23.386;2023-07-29T07:33:51;2.10;;;2.00;;
7110;SDS011;3597;42.650;23.386;2023-07-29T07:36:17;1.50;;;1.50;;
7110;SDS011;3597;42.650;23.386;2023-07-29T07:38:42;1.70;;;1.58;;
7110;SDS011;3597;42.650;23.386;2023-07-29T07:41:07;1.60;;;1.50;;
7110;SDS011;3597;42.650;23.386;2023-07-29T07:43:33;1.40;;;1.40;;
7110;SDS011;3597;42.650;23.386;2023-07-29T07:45:58;1.45;;;1.45;;
7110;SDS011;3597;42.650;23.386;2023-07-29T07:48:25;1.30;;;1.30;;
7110;SDS011;3597;42.650;23.386;2023-07-29T07:50:51;1.38;;;1.38;;
7110;SDS011;3597;42.650;23.386;2023-07-29T07:53:16;2.30;;;1.40;;
7110;SDS011;3597;42.650;23.386;2023-07-29T07:55:41;1.40;;;1.40;;
7110;SDS011;3597;42.650;23.386;2023-07-29T07:58:07;2.45;;;1.70;;
7110;SDS011;3597;42.650;23.386;2023-07-29T08:00:32;2.00;;;1.40;;
7110;SDS011;3597;42.650;23.386;2023-07-29T08:02:57;1.40;;;1.30;;
7110;SDS011;3597;42.650;23.386;2023-07-29T08:05:23;1.40;;;1.40;;
7110;SDS011;3597;42.650;23.386;2023-07-29T08:07:48;1.60;;;1.60;;
7110;SDS011;3597;42.650;23.386;2023-07-29T08:10:14;1.45;;;1.45;;
7110;SDS011;3597;42.650;23.386;2023-07-29T08:12:39;1.40;;;1.40;;
7110;SDS011;3597;42.650;23.386;2023-07-29T08:15:05;1.48;;;1.48;;
7110;SDS011;3597;42.650;23.386;2023-07-29T08:17:30;1.63;;;1.63;;
7110;SDS011;3597;42.650;23.386;2023-07-29T08:19:56;1.58;;;1.58;;
7110;SDS011;3597;42.650;23.386;2023-07-29T08:22:21;1.17;;;1.17;;
7110;SDS011;3597;42.650;23.386;2023-07-29T08:24:46;1.65;;;1.65;;
7110;SDS011;3597;42.650;23.386;2023-07-29T08:27:12;3.95;;;1.67;;
7110;SDS011;3597;42.650;23.386;2023-07-29T08:29:37;1.77;;;1.70;;
7110;SDS011;3597;42.650;23.386;2023-07-29T08:32:04;1.60;;;1.50;;
7110;SDS011;3597;42.650;23.386;2023-07-29T08:34:29;1.42;;;1.42;;
7110;SDS011;3597;42.650;23.386;2023-07-29T08:36:54;1.50;;;1.50;;
7110;SDS011;3597;42.650;23.386;2023-07-29T08:39:20;1.48;;;1.48;;
7110;SDS011;3597;42.650;23.386;2023-07-29T08:41:57;1.33;;;1.33;;
7110;SDS011;3597;42.650;23.386;2023-07-29T08:44:30;1.33;;;1.30;;
7110;SDS011;3597;42.650;23.386;2023-07-29T08:47:01;1.40;;;1.40;;
7110;SDS011;3597;42.650;23.386;2023-07-29T08:49:26;1.48;;;1.48;;
7110;SDS011;3597;42.650;23.386;2023-07-29T08:51:53;2.15;;;1.60;;
7110;SDS011;3597;42.650;23.386;2023-07-29T08:54:19;1.23;;;1.23;;
7110;SDS011;3597;42.650;23.386;2023-07-29T08:56:44;1.27;;;1.27;;
7110;SDS011;3597;42.650;23.386;2023-07-29T08:59:10;1.40;;;1.40;;
7110;SDS011;3597;42.650;23.386;2023-07-29T09:01:37;1.40;;;1.40;;
7110;SDS011;3597;42.650;23.386;2023-07-29T09:04:03;1.10;;;1.10;;
7110;SDS011;3597;42.650;23.386;2023-07-29T09:06:29;1.15;;;1.15;;
7110;SDS011;3597;42.650;23.386;2023-07-29T09:08:54;1.48;;;1.48;;
7110;SDS011;3597;42.650;23.386;2023-07-29T09:11:22;1.13;;;1.13;;
7110;SDS011;3597;42.650;23.386;2023-07-29T09:13:48;1.20;;;1.20;;
7110;SDS011;3597;42.650;23.386;2023-07-29T09:16:13;1.33;;;1.23;;
7110;SDS011;3597;42.650;23.386;2023-07-29T09:18:39;1.15;;;1.15;;
7110;SDS011;3597;42.650;23.386;2023-07-29T09:21:05;1.00;;;1.00;;
7110;SDS011;3597;42.650;23.386;2023-07-29T09:23:43;1.15;;;1.15;;
7110;SDS011;3597;42.650;23.386;2023-07-29T09:26:09;1.33;;;1.23;;
7110;SDS011;3597;42.650;23.386;2023-07-29T09:28:39;1.20;;;1.20;;
7110;SDS011;3597;42.650;23.386;2023-07-29T09:31:05;1.20;;;1.20;;
7110;SDS011;3597;42.650;23.386;2023-07-29T09:33:34;1.20;;;1.20;;
7110;SDS011;3597;42.650;23.386;2023-07-29T09:36:08;1.20;;;1.20;;
7110;SDS011;3597;42.650;23.386;2023-07-29T09:38:34;1.08;;;1.08;;
7110;SDS011;3597;42.650;23.386;2023-07-29T09:41:00;1.00;;;1.00;;
7110;SDS011;3597;42.650;23.386;2023-07-29T09:43:30;1.08;;;1.08;;
7110;SDS011;3597;42.650;23.386;2023-07-29T09:46:03;1.35;;;1.35;;
7110;SDS011;3597;42.650;23.386;2023-07-29T09:48:32;1.00;;;1.00;;
7110;SDS011;3597;42.650;23.386;2023-07-29T09:50:58;1.02;;;1.02;;
7110;SDS011;3597;42.650;23.386;2023-07-29T09:53:24;1.05;;;1.05;;
7110;SDS011;3597;42.650;23.386;2023-07-29T09:55:49;1.10;;;1.10;;
7110;SDS011;3597;42.650;23.386;2023-07-29T09:58:26;1.00;;;1.00;;
7110;SDS011;3597;42.650;23.386;2023-07-29T10:00:51;1.20;;;1.20;;
7110;SDS011;3597;42.650;23.386;2023-07-29T10:03:17;1.15;;;1.15;;
7110;SDS011;3597;42.650;23.386;2023-07-29T10:05:44;1.20;;;1.20;;
7110;SDS011;3597;42.650;23.386;2023-07-29T10:08:10;1.10;;;1.10;;
7110;SDS011;3597;42.650;23.386;2023-07-29T10:10:36;1.10;;;1.10;;
7110;SDS011;3597;42.650;23.386;2023-07-29T10:13:01;1.20;;;1.10;;
7110;SDS011;3597;42.650;23.386;2023-07-29T10:15:27;1.05;;;1.05;;
7110;SDS011;3597;42.650;23.386;2023-07-29T10:17:54;1.10;;;1.10;;
7110;SDS011;3597;42.650;23.386;2023-07-29T10:20:20;1.10;;;1.10;;
7110;SDS011;3597;42.650;23.386;2023-07-29T10:22:46;1.30;;;1.30;;
7110;SDS011;3597;42.650;23.386;2023-07-29T10:28:26;1.25;;;1.25;;
7110;SDS011;3597;42.650;23.386;2023-07-29T10:30:30;1.17;;;1.17;;
7110;SDS011;3597;42.650;23.386;2023-07-29T10:32:58;1.17;;;1.17;;
7110;SDS011;3597;42.650;23.386;2023-07-29T10:35:24;1.30;;;1.30;;
7110;SDS011;3597;42.650;23.386;2023-07-29T10:37:50;1.10;;;1.10;;
7110;SDS011;3597;42.650;23.386;2023-07-29T10:40:17;1.10;;;1.10;;
7110;SDS011;3597;42.650;23.386;2023-07-29T10:43:01;1.20;;;1.20;;
7110;SDS011;3597;42.650;23.386;2023-07-29T10:45:40;1.17;;;1.17;;
7110;SDS011;3597;42.650;23.386;2023-07-29T10:48:09;1.20;;;1.20;;
7110;SDS011;3597;42.650;23.386;2023-07-29T10:51:21;1.20;;;1.20;;
7110;SDS011;3597;42.650;23.386;2023-07-29T10:53:48;1.20;;;1.20;;
7110;SDS011;3597;42.650;23.386;2023-07-29T10:56:41;1.50;;;1.50;;
7110;SDS011;3597;42.650;23.386;2023-07-29T11:01:43;1.20;;;1.20;;
7110;SDS011;3597;42.650;23.386;2023-07-29T11:09:42;1.00;;;1.00;;
7110;SDS011;3597;42.650;23.386;2023-07-29T11:14:57;0.90;;;0.90;;
7110;SDS011;3597;42.650;23.386;2023-07-29T11:17:25;1.20;;;1.20;;
7110;SDS011;3597;42.650;23.386;2023-07-29T11:19:51;0.70;;;0.70;;
7110;SDS011;3597;42.650;23.386;2023-07-29T11:22:16;0.80;;;0.80;;
7110;SDS011;3597;42.650;23.386;2023-07-29T11:24:42;0.82;;;0.82;;
7110;SDS011;3597;42.650;23.386;2023-07-29T11:27:11;0.90;;;0.90;;
7110;SDS011;3597;42.650;23.386;2023-07-29T11:29:36;0.90;;;0.90;;
7110;SDS011;3597;42.650;23.386;2023-07-29T11:32:02;1.00;;;1.00;;
7110;SDS011;3597;42.650;23.386;2023-07-29T11:34:31;0.90;;;0.90;;
7110;SDS011;3597;42.650;23.386;2023-07-29T11:36:57;0.90;;;0.90;;
7110;SDS011;3597;42.650;23.386;2023-07-29T11:39:22;0.77;;;0.77;;
7110;SDS011;3597;42.650;23.386;2023-07-29T11:41:47;1.00;;;1.00;;
7110;SDS011;3597;42.650;23.386;2023-07-29T11:44:16;1.00;;;1.00;;
7110;SDS011;3597;42.650;23.386;2023-07-29T11:46:42;1.00;;;1.00;;
7110;SDS011;3597;42.650;23.386;2023-07-29T11:49:08;1.00;;;1.00;;
7110;SDS011;3597;42.650;23.386;2023-07-29T11:51:33;0.93;;;0.93;;
7110;SDS011;3597;42.650;23.386;2023-07-29T11:53:59;0.88;;;0.88;;
7110;SDS011;3597;42.650;23.386;2023-07-29T11:56:25;0.77;;;0.77;;
7110;SDS011;3597;42.650;23.386;2023-07-29T11:58:51;0.90;;;0.90;;
7110;SDS011;3597;42.650;23.386;2023-07-29T12:01:16;0.70;;;0.70;;
7110;SDS011;3597;42.650;23.386;2023-07-29T12:03:42;1.05;;;0.80;;
7110;SDS011;3597;42.650;23.386;2023-07-29T12:06:08;0.80;;;0.80;;
7110;SDS011;3597;42.650;23.386;2023-07-29T12:08:33;1.85;;;0.90;;
7110;SDS011;3597;42.650;23.386;2023-07-29T12:10:58;0.90;;;0.90;;
7110;SDS011;3597;42.650;23.386;2023-07-29T12:13:24;0.80;;;0.80;;
7110;SDS011;3597;42.650;23.386;2023-07-29T12:15:50;0.80;;;0.80;;
7110;SDS011;3597;42.650;23.386;2023-07-29T12:18:15;0.90;;;0.90;;
7110;SDS011;3597;42.650;23.386;2023-07-29T12:20:41;1.00;;;1.00;;
7110;SDS011;3597;42.650;23.386;2023-07-29T12:23:06;0.90;;;0.80;;
7110;SDS011;3597;42.650;23.386;2023-07-29T12:25:33;0.70;;;0.70;;
7110;SDS011;3597;42.650;23.386;2023-07-29T12:28:02;0.90;;;0.90;;
7110;SDS011;3597;42.650;23.386;2023-07-29T12:30:28;0.90;;;0.90;;
7110;SDS011;3597;42.650;23.386;2023-07-29T12:32:53;0.90;;;0.90;;
7110;SDS011;3597;42.650;23.386;2023-07-29T12:35:19;0.90;;;0.90;;
7110;SDS011;3597;42.650;23.386;2023-07-29T12:37:44;0.93;;;0.93;;
7110;SDS011;3597;42.650;23.386;2023-07-29T12:40:22;0.90;;;0.90;;
7110;SDS011;3597;42.650;23.386;2023-07-29T12:42:49;1.10;;;1.10;;
7110;SDS011;3597;42.650;23.386;2023-07-29T12:45:15;1.20;;;1.20;;
7110;SDS011;3597;42.650;23.386;2023-07-29T12:47:42;1.23;;;1.23;;
7110;SDS011;3597;42.650;23.386;2023-07-29T12:50:07;1.30;;;1.30;;
7110;SDS011;3597;42.650;23.386;2023-07-29T12:52:33;1.20;;;1.20;;
7110;SDS011;3597;42.650;23.386;2023-07-29T12:54:58;1.17;;;1.17;;
7110;SDS011;3597;42.650;23.386;2023-07-29T12:57:23;1.00;;;1.00;;
7110;SDS011;3597;42.650;23.386;2023-07-29T12:59:49;1.10;;;1.10;;
7110;SDS011;3597;42.650;23.386;2023-07-29T13:02:14;1.10;;;1.10;;
7110;SDS011;3597;42.650;23.386;2023-07-29T13:04:39;1.10;;;1.10;;
7110;SDS011;3597;42.650;23.386;2023-07-29T13:07:05;1.20;;;1.20;;
7110;SDS011;3597;42.650;23.386;2023-07-29T13:09:31;1.23;;;1.10;;
7110;SDS011;3597;42.650;23.386;2023-07-29T13:11:57;1.00;;;1.00;;
7110;SDS011;3597;42.650;23.386;2023-07-29T13:14:22;1.13;;;1.13;;
7110;SDS011;3597;42.650;23.386;2023-07-29T13:16:47;1.48;;;1.48;;
7110;SDS011;3597;42.650;23.386;2023-07-29T13:19:12;1.38;;;1.38;;
7110;SDS011;3597;42.650;23.386;2023-07-29T13:21:38;1.20;;;1.20;;
7110;SDS011;3597;42.650;23.386;2023-07-29T13:24:03;1.20;;;1.15;;
7110;SDS011;3597;42.650;23.386;2023-07-29T13:26:28;1.40;;;1.40;;
7110;SDS011;3597;42.650;23.386;2023-07-29T13:28:54;1.33;;;1.33;;
7110;SDS011;3597;42.650;23.386;2023-07-29T13:31:21;1.40;;;1.40;;
7110;SDS011;3597;42.650;23.386;2023-07-29T13:33:46;1.20;;;1.20;;
7110;SDS011;3597;42.650;23.386;2023-07-29T13:36:11;1.75;;;1.75;;
7110;SDS011;3597;42.650;23.386;2023-07-29T13:38:37;1.20;;;1.20;;
7110;SDS011;3597;42.650;23.386;2023-07-29T13:41:02;1.70;;;1.70;;
7110;SDS011;3597;42.650;23.386;2023-07-29T13:43:28;1.10;;;1.10;;
7110;SDS011;3597;42.650;23.386;2023-07-29T13:45:53;1.10;;;1.10;;
7110;SDS011;3597;42.650;23.386;2023-07-29T13:48:18;1.48;;;1.20;;
7110;SDS011;3597;42.650;23.386;2023-07-29T13:50:44;1.20;;;1.20;;
7110;SDS011;3597;42.650;23.386;2023-07-29T13:53:10;1.35;;;1.35;;
7110;SDS011;3597;42.650;23.386;2023-07-29T13:55:36;1.17;;;1.17;;
7110;SDS011;3597;42.650;23.386;2023-07-29T13:58:01;1.27;;;1.27;;
7110;SDS011;3597;42.650;23.386;2023-07-29T14:00:27;1.30;;;1.30;;
7110;SDS011;3597;42.650;23.386;2023-07-29T14:02:52;1.30;;;1.30;;
7110;SDS011;3597;42.650;23.386;2023-07-29T14:05:18;1.13;;;1.13;;
7110;SDS011;3597;42.650;23.386;2023-07-29T14:07:43;1.48;;;1.48;;
7110;SDS011;3597;42.650;23.386;2023-07-29T14:10:09;1.20;;;1.20;;
7110;SDS011;3597;42.650;23.386;2023-07-29T14:12:34;1.25;;;1.25;;
7110;SDS011;3597;42.650;23.386;2023-07-29T14:15:00;1.23;;;1.23;;
7110;SDS011;3597;42.650;23.386;2023-07-29T14:17:25;1.10;;;1.10;;
7110;SDS011;3597;42.650;23.386;2023-07-29T14:19:50;1.10;;;1.10;;
7110;SDS011;3597;42.650;23.386;2023-07-29T14:22:16;1.67;;;1.67;;
7110;SDS011;3597;42.650;23.386;2023-07-29T14:24:41;1.30;;;1.30;;
7110;SDS011;3597;42.650;23.386;2023-07-29T14:27:06;1.50;;;1.50;;
7110;SDS011;3597;42.650;23.386;2023-07-29T14:29:32;1.40;;;1.40;;
7110;SDS011;3597;42.650;23.386;2023-07-29T14:31:57;1.30;;;1.30;;
7110;SDS011;3597;42.650;23.386;2023-07-29T14:34:22;1.48;;;1.48;;
7110;SDS011;3597;42.650;23.386;2023-07-29T14:36:48;1.30;;;1.30;;
7110;SDS011;3597;42.650;23.386;2023-07-29T14:39:13;1.20;;;1.20;;
7110;SDS011;3597;42.650;23.386;2023-07-29T14:41:38;1.20;;;1.20;;
7110;SDS011;3597;42.650;23.386;2023-07-29T14:44:04;1.13;;;1.13;;
7110;SDS011;3597;42.650;23.386;2023-07-29T14:46:29;1.15;;;1.15;;
7110;SDS011;3597;42.650;23.386;2023-07-29T14:48:55;0.90;;;0.90;;
7110;SDS011;3597;42.650;23.386;2023-07-29T14:51:20;1.00;;;1.00;;
7110;SDS011;3597;42.650;23.386;2023-07-29T14:53:45;1.20;;;1.05;;
7110;SDS011;3597;42.650;23.386;2023-07-29T14:56:11;1.10;;;1.10;;
7110;SDS011;3597;42.650;23.386;2023-07-29T14:58:38;1.30;;;1.30;;
7110;SDS011;3597;42.650;23.386;2023-07-29T15:01:03;1.00;;;1.00;;
7110;SDS011;3597;42.650;23.386;2023-07-29T15:03:29;1.00;;;1.00;;
7110;SDS011;3597;42.650;23.386;2023-07-29T15:05:54;1.15;;;1.15;;
7110;SDS011;3597;42.650;23.386;2023-07-29T15:08:20;1.10;;;1.10;;
7110;SDS011;3597;42.650;23.386;2023-07-29T15:10:48;1.08;;;1.08;;
7110;SDS011;3597;42.650;23.386;2023-07-29T15:13:13;0.93;;;0.93;;